Duncanville, Texas
Current Conditions -  °F | °C
As of 9:53 AM on Saturday 22 Nov 2014 (Local Time) from KRBD Reporting Station
Haze Haze  
Wind Chill: 60°   Ceiling: 400
Heat Index: 60°   Visibility: 2.5mi
Dew Point: 57°   Wind: 10mph
Humidity: 90%   Direction: 140°SE
Pressure: 30.03"   Gusts: NA
Location:  32.65°N, 96.91°W
Report Text: KRBD 221553Z 14009KT 2 1/2SM BR OVC004 16/14 A3003 RMK AO2 SLP166 T01560139
Loading
Personal Weather Stations






























Interactive Weather Map New forecast layout! Learn more

10-Day Weather Forecast

Advertisements
Track Severe Weather on mobile